La rose des vents
Donnes mto: Semaine 25/04/22 - 01/05/22 (S 17)
Date Horaire Temp. E. Hum. E. P.atmo. Pluie Vent 1mn Direction Ensoleilleme Ev.Tr. Solaire P. de rose Temp au vent Rafales
25/04/2022 00:00 10,1 C 95 % 1007,6 hPa 0,0 mm 0,0 km/h (0 Bft) N 0,00 h 0,000 mm 0 W/m 9,3 C 10,1 C 0,0 km/h (0 Bft)
25/04/2022 01:00 10,0 C 96 % 1007,5 hPa 0,0 mm 0,0 km/h (0 Bft) N 0,00 h 0,000 mm 0 W/m 9,4 C 10,0 C 0,0 km/h (0 Bft)
25/04/2022 02:00 10,2 C 97 % 1007,3 hPa 0,0 mm 0,0 km/h (0 Bft) N 0,00 h 0,000 mm 0 W/m 9,7 C 10,2 C 0,0 km/h (0 Bft)
25/04/2022 03:00 9,9 C 97 % 1007,0 hPa 0,2 mm 0,0 km/h (0 Bft) N 0,00 h 0,000 mm 0 W/m 9,4 C 9,9 C 0,0 km/h (0 Bft)
25/04/2022 04:00 9,7 C 97 % 1006,7 hPa 0,0 mm 0,0 km/h (0 Bft) N 0,00 h 0,000 mm 0 W/m 9,3 C 9,7 C 0,0 km/h (0 Bft)
25/04/2022 05:00 9,5 C 97 % 1006,4 hPa 0,0 mm 0,0 km/h (0 Bft) N 0,00 h 0,000 mm 0 W/m 9,0 C 9,5 C 0,0 km/h (0 Bft)
25/04/2022 06:00 9,4 C 97 % 1006,6 hPa 0,0 mm 0,0 km/h (0 Bft) N 0,00 h 0,000 mm 10 W/m 8,9 C 9,4 C 0,0 km/h (0 Bft)
25/04/2022 07:00 9,5 C 97 % 1007,2 hPa 0,0 mm 0,0 km/h (0 Bft) N 0,00 h 0,000 mm 31 W/m 9,1 C 9,5 C 0,0 km/h (0 Bft)
25/04/2022 08:00 10,7 C 98 % 1007,6 hPa 0,0 mm 0,0 km/h (0 Bft) N 0,15 h 0,025 mm 120 W/m 10,4 C 10,7 C 0,0 km/h (0 Bft)
25/04/2022 09:00 13,4 C 93 % 1007,8 hPa 0,0 mm 0,2 km/h (0 Bft) NE 0,97 h 0,051 mm 504 W/m 12,3 C 13,4 C 0,7 km/h (0 Bft)
25/04/2022 10:00 16,2 C 78 % 1008,1 hPa 0,0 mm 0,2 km/h (0 Bft) NE 0,38 h 0,254 mm 336 W/m 12,4 C 16,2 C 0,6 km/h (0 Bft)
25/04/2022 11:00 17,2 C 75 % 1008,5 hPa 0,0 mm 1,6 km/h (1 Bft) E 0,57 h 0,178 mm 591 W/m 12,7 C 17,2 C 5,3 km/h (1 Bft)
25/04/2022 12:00 18,8 C 69 % 1009,1 hPa 0,0 mm 2,1 km/h (1 Bft) E 0,83 h 0,356 mm 714 W/m 12,8 C 18,8 C 6,9 km/h (2 Bft)
25/04/2022 13:00 19,0 C 67 % 1009,3 hPa 0,0 mm 2,5 km/h (1 Bft) E 1,00 h 0,406 mm 806 W/m 12,6 C 19,0 C 7,3 km/h (2 Bft)
25/04/2022 14:00 18,9 C 66 % 1009,4 hPa 0,0 mm 1,9 km/h (1 Bft) E-SE 1,00 h 0,457 mm 777 W/m 12,3 C 18,9 C 6,6 km/h (2 Bft)
25/04/2022 15:00 19,8 C 65 % 1009,2 hPa 0,0 mm 1,3 km/h (1 Bft) E 1,00 h 0,457 mm 693 W/m 13,1 C 19,8 C 5,1 km/h (1 Bft)
25/04/2022 16:00 19,7 C 66 % 1009,1 hPa 0,0 mm 0,5 km/h (0 Bft) E 0,85 h 0,406 mm 514 W/m 13,1 C 19,7 C 3,0 km/h (1 Bft)
25/04/2022 17:00 18,5 C 69 % 1009,3 hPa 0,0 mm 1,2 km/h (1 Bft) E 0,80 h 0,305 mm 385 W/m 12,8 C 18,5 C 4,6 km/h (1 Bft)
25/04/2022 18:00 17,5 C 74 % 1009,4 hPa 0,0 mm 0,6 km/h (0 Bft) SE 0,82 h 0,229 mm 243 W/m 12,8 C 17,5 C 2,4 km/h (1 Bft)
25/04/2022 19:00 15,8 C 79 % 1009,7 hPa 0,0 mm 0,0 km/h (0 Bft) SE 0,12 h 0,127 mm 59 W/m 12,2 C 15,8 C 0,7 km/h (0 Bft)
25/04/2022 20:00 13,9 C 86 % 1010,0 hPa 0,0 mm 0,3 km/h (0 Bft) SE 0,02 h 0,025 mm 10 W/m 11,7 C 13,9 C 1,2 km/h (1 Bft)
25/04/2022 21:00 12,8 C 92 % 1010,5 hPa 0,0 mm 0,2 km/h (0 Bft) SE 0,00 h 0,000 mm 0 W/m 11,5 C 12,8 C 0,8 km/h (0 Bft)
25/04/2022 22:00 12,5 C 94 % 1011,0 hPa 0,0 mm 0,0 km/h (0 Bft) N 0,00 h 0,000 mm 0 W/m 11,5 C 12,5 C 0,0 km/h (0 Bft)
25/04/2022 23:00 12,2 C 94 % 1011,3 hPa 0,0 mm 0,0 km/h (0 Bft) N 0,00 h 0,000 mm 0 W/m 11,3 C 12,2 C 0,0 km/h (0 Bft)
26/04/2022 00:00 12,2 C 96 % 1011,4 hPa 0,0 mm 0,0 km/h (0 Bft) N 0,00 h 0,000 mm 0 W/m 11,5 C 12,2 C 0,0 km/h (0 Bft)
26/04/2022 01:00 12,2 C 96 % 1011,8 hPa 0,0 mm 0,0 km/h (0 Bft) N 0,00 h 0,000 mm 0 W/m 11,6 C 12,2 C 0,0 km/h (0 Bft)
26/04/2022 02:00 12,0 C 95 % 1011,8 hPa 0,0 mm 0,0 km/h (0 Bft) N 0,00 h 0,000 mm 0 W/m 11,3 C 12,0 C 0,0 km/h (0 Bft)
26/04/2022 03:00 11,8 C 95 % 1011,7 hPa 0,0 mm 0,0 km/h (0 Bft) N 0,00 h 0,000 mm 0 W/m 11,0 C 11,8 C 0,0 km/h (0 Bft)
26/04/2022 04:00 11,7 C 95 % 1011,7 hPa 0,0 mm 0,0 km/h (0 Bft) N 0,00 h 0,000 mm 0 W/m 10,9 C 11,7 C 0,0 km/h (0 Bft)
26/04/2022 05:00 11,1 C 94 % 1011,6 hPa 0,0 mm 0,0 km/h (0 Bft) N 0,00 h 0,000 mm 0 W/m 10,1 C 11,1 C 0,0 km/h (0 Bft)
26/04/2022 06:00 10,3 C 93 % 1012,0 hPa 0,0 mm 0,1 km/h (0 Bft) SE 0,00 h 0,000 mm 10 W/m 9,2 C 10,3 C 0,7 km/h (0 Bft)
26/04/2022 07:00 10,4 C 93 % 1012,5 hPa 0,0 mm 0,3 km/h (0 Bft) SE 0,00 h 0,000 mm 40 W/m 9,3 C 10,4 C 1,8 km/h (1 Bft)
26/04/2022 08:00 11,9 C 91 % 1012,7 hPa 0,0 mm 0,0 km/h (0 Bft) N 0,00 h 0,025 mm 123 W/m 10,6 C 11,9 C 0,0 km/h (0 Bft)
26/04/2022 09:00 14,4 C 85 % 1012,9 hPa 0,0 mm 0,0 km/h (0 Bft) SE 0,28 h 0,051 mm 303 W/m 11,9 C 14,4 C 0,0 km/h (0 Bft)
26/04/2022 10:00 17,2 C 75 % 1013,1 hPa 0,0 mm 0,6 km/h (0 Bft) SE 0,33 h 0,152 mm 371 W/m 12,7 C 17,2 C 2,1 km/h (1 Bft)
26/04/2022 11:00 17,4 C 74 % 1013,4 hPa 0,0 mm 2,3 km/h (1 Bft) S 0,33 h 0,203 mm 486 W/m 12,8 C 17,4 C 6,0 km/h (2 Bft)
26/04/2022 12:00 19,4 C 70 % 1013,2 hPa 0,0 mm 3,6 km/h (1 Bft) E 0,58 h 0,305 mm 704 W/m 13,8 C 19,4 C 9,8 km/h (2 Bft)
26/04/2022 13:00 18,6 C 75 % 1013,0 hPa 0,0 mm 2,0 km/h (1 Bft) E 0,33 h 0,406 mm 477 W/m 14,1 C 18,6 C 6,9 km/h (2 Bft)
26/04/2022 14:00 19,8 C 72 % 1012,7 hPa 0,0 mm 4,3 km/h (1 Bft) E 0,72 h 0,279 mm 742 W/m 14,5 C 19,8 C 10,1 km/h (2 Bft)
26/04/2022 15:00 19,5 C 73 % 1012,5 hPa 0,0 mm 3,2 km/h (1 Bft) E-SE 0,92 h 0,457 mm 723 W/m 14,6 C 19,5 C 8,0 km/h (2 Bft)
26/04/2022 16:00 18,0 C 79 % 1012,3 hPa 0,0 mm 1,7 km/h (1 Bft) E 0,58 h 0,406 mm 452 W/m 14,3 C 18,0 C 5,1 km/h (1 Bft)
26/04/2022 17:00 17,3 C 81 % 1012,3 hPa 0,0 mm 2,6 km/h (1 Bft) E 0,42 h 0,254 mm 281 W/m 14,0 C 17,3 C 7,0 km/h (2 Bft)
26/04/2022 18:00 15,3 C 87 % 1012,6 hPa 0,0 mm 1,2 km/h (1 Bft) E 0,00 h 0,152 mm 66 W/m 13,2 C 15,3 C 3,7 km/h (1 Bft)
26/04/2022 19:00 14,6 C 90 % 1012,7 hPa 0,0 mm 0,2 km/h (0 Bft) E 0,00 h 0,051 mm 22 W/m 12,9 C 14,6 C 1,3 km/h (1 Bft)
26/04/2022 20:00 13,7 C 91 % 1013,1 hPa 0,0 mm 0,0 km/h (0 Bft) N 0,00 h 0,025 mm 10 W/m 12,2 C 13,7 C 0,5 km/h (0 Bft)
26/04/2022 21:00 12,9 C 93 % 1013,7 hPa 0,0 mm 0,0 km/h (0 Bft) N 0,00 h 0,000 mm 0 W/m 11,7 C 12,9 C 0,0 km/h (0 Bft)
26/04/2022 22:00 12,8 C 95 % 1014,1 hPa 0,0 mm 0,0 km/h (0 Bft) N 0,00 h 0,000 mm 0 W/m 12,0 C 12,8 C 0,1 km/h (0 Bft)
26/04/2022 23:00 13,1 C 96 % 1014,2 hPa 0,0 mm 0,0 km/h (0 Bft) E 0,00 h 0,000 mm 0 W/m 12,4 C 13,1 C 0,1 km/h (0 Bft)
27/04/2022 00:00 13,3 C 96 % 1014,5 hPa 0,0 mm 0,0 km/h (0 Bft) N 0,00 h 0,000 mm 0 W/m 12,6 C 13,3 C 0,2 km/h (0 Bft)
27/04/2022 01:00 13,2 C 95 % 1014,6 hPa 0,0 mm 0,0 km/h (0 Bft) N 0,00 h 0,000 mm 0 W/m 12,4 C 13,2 C 0,1 km/h (0 Bft)
27/04/2022 02:00 12,8 C 94 % 1014,6 hPa 0,0 mm 0,0 km/h (0 Bft) N 0,00 h 0,000 mm 0 W/m 11,9 C 12,8 C 0,0 km/h (0 Bft)
27/04/2022 03:00 12,7 C 95 % 1014,6 hPa 0,0 mm 0,0 km/h (0 Bft) N 0,00 h 0,000 mm 0 W/m 11,9 C 12,7 C 0,0 km/h (0 Bft)
27/04/2022 04:00 12,8 C 95 % 1014,8 hPa 0,0 mm 0,0 km/h (0 Bft) N 0,00 h 0,000 mm 0 W/m 12,0 C 12,8 C 0,0 km/h (0 Bft)
27/04/2022 05:00 12,8 C 95 % 1014,8 hPa 0,0 mm 0,0 km/h (0 Bft) N 0,00 h 0,000 mm 0 W/m 12,0 C 12,8 C 0,0 km/h (0 Bft)
27/04/2022 06:00 12,7 C 95 % 1015,0 hPa 0,0 mm 0,0 km/h (0 Bft) N 0,00 h 0,000 mm 6 W/m 11,9 C 12,7 C 0,0 km/h (0 Bft)
27/04/2022 07:00 12,6 C 94 % 1015,6 hPa 0,0 mm 0,0 km/h (0 Bft) N 0,00 h 0,000 mm 28 W/m 11,6 C 12,6 C 0,0 km/h (0 Bft)
27/04/2022 08:00 13,2 C 90 % 1016,1 hPa 0,0 mm 0,0 km/h (0 Bft) N 0,00 h 0,025 mm 132 W/m 11,6 C 13,2 C 0,1 km/h (0 Bft)
27/04/2022 09:00 15,5 C 81 % 1016,5 hPa 0,0 mm 0,1 km/h (0 Bft) E 0,32 h 0,076 mm 287 W/m 12,3 C 15,5 C 0,8 km/h (0 Bft)
27/04/2022 10:00 17,0 C 75 % 1016,8 hPa 0,0 mm 0,5 km/h (0 Bft) E 0,30 h 0,152 mm 335 W/m 12,5 C 17,0 C 1,5 km/h (1 Bft)
27/04/2022 11:00 18,9 C 74 % 1017,2 hPa 0,0 mm 3,5 km/h (1 Bft) E 1,00 h 0,203 mm 776 W/m 14,1 C 18,9 C 8,9 km/h (2 Bft)
27/04/2022 12:00 19,2 C 72 % 1017,6 hPa 0,0 mm 3,9 km/h (1 Bft) E 1,00 h 0,457 mm 836 W/m 13,9 C 19,2 C 9,5 km/h (2 Bft)
27/04/2022 13:00 18,9 C 72 % 1017,6 hPa 0,0 mm 4,2 km/h (1 Bft) E 0,77 h 0,483 mm 781 W/m 13,8 C 18,9 C 9,8 km/h (2 Bft)
27/04/2022 14:00 19,2 C 71 % 1017,7 hPa 0,0 mm 3,7 km/h (1 Bft) E 1,00 h 0,457 mm 786 W/m 13,8 C 19,2 C 8,8 km/h (2 Bft)
27/04/2022 15:00 19,4 C 68 % 1017,4 hPa 0,0 mm 2,7 km/h (1 Bft) E 1,00 h 0,457 mm 693 W/m 13,4 C 19,4 C 7,0 km/h (2 Bft)
27/04/2022 16:00 19,7 C 66 % 1017,0 hPa 0,0 mm 1,3 km/h (1 Bft) E 1,00 h 0,406 mm 572 W/m 13,2 C 19,7 C 4,3 km/h (1 Bft)
27/04/2022 17:00 19,6 C 59 % 1016,8 hPa 0,0 mm 0,8 km/h (0 Bft) E 1,00 h 0,330 mm 419 W/m 11,5 C 19,6 C 3,4 km/h (1 Bft)
27/04/2022 18:00 19,6 C 57 % 1016,8 hPa 0,0 mm 0,0 km/h (0 Bft) N 1,00 h 0,254 mm 255 W/m 10,8 C 19,6 C 0,2 km/h (0 Bft)
27/04/2022 19:00 18,1 C 59 % 1017,0 hPa 0,0 mm 0,0 km/h (0 Bft) N 0,13 h 0,152 mm 67 W/m 9,9 C 18,1 C 0,0 km/h (0 Bft)
27/04/2022 20:00 16,4 C 62 % 1017,3 hPa 0,0 mm 0,0 km/h (0 Bft) N 0,02 h 0,051 mm 11 W/m 9,0 C 16,4 C 0,0 km/h (0 Bft)
27/04/2022 21:00 15,0 C 70 % 1017,8 hPa 0,0 mm 0,0 km/h (0 Bft) N 0,00 h 0,000 mm 0 W/m 9,5 C 15,0 C 0,0 km/h (0 Bft)
27/04/2022 22:00 14,1 C 74 % 1018,1 hPa 0,0 mm 0,0 km/h (0 Bft) N 0,00 h 0,025 mm 0 W/m 9,5 C 14,1 C 0,0 km/h (0 Bft)
27/04/2022 23:00 13,5 C 72 % 1018,3 hPa 0,0 mm 0,0 km/h (0 Bft) N 0,00 h 0,025 mm 0 W/m 8,5 C 13,5 C 0,0 km/h (0 Bft)
28/04/2022 00:00 13,3 C 76 % 1018,8 hPa 0,0 mm 0,0 km/h (0 Bft) N 0,00 h 0,025 mm 0 W/m 9,2 C 13,3 C 0,0 km/h (0 Bft)
28/04/2022 01:00 13,4 C 76 % 1018,8 hPa 0,0 mm 0,0 km/h (0 Bft) N 0,00 h 0,025 mm 0 W/m 9,2 C 13,4 C 0,0 km/h (0 Bft)
28/04/2022 02:00 13,5 C 77 % 1018,7 hPa 0,0 mm 0,0 km/h (0 Bft) N 0,00 h 0,025 mm 0 W/m 9,5 C 13,5 C 0,0 km/h (0 Bft)
28/04/2022 03:00 13,5 C 74 % 1018,7 hPa 0,0 mm 0,0 km/h (0 Bft) N 0,00 h 0,025 mm 0 W/m 9,0 C 13,5 C 0,0 km/h (0 Bft)
28/04/2022 04:00 13,3 C 74 % 1018,4 hPa 0,0 mm 0,0 km/h (0 Bft) N 0,00 h 0,025 mm 0 W/m 8,8 C 13,3 C 0,0 km/h (0 Bft)
28/04/2022 05:00 12,8 C 76 % 1018,6 hPa 0,0 mm 0,0 km/h (0 Bft) N 0,00 h 0,025 mm 0 W/m 8,7 C 12,8 C 0,0 km/h (0 Bft)
28/04/2022 06:00 12,6 C 77 % 1018,8 hPa 0,0 mm 0,0 km/h (0 Bft) N 0,03 h 0,025 mm 12 W/m 8,7 C 12,6 C 0,0 km/h (0 Bft)
28/04/2022 07:00 13,5 C 75 % 1019,1 hPa 0,0 mm 0,0 km/h (0 Bft) N 0,00 h 0,000 mm 34 W/m 9,2 C 13,5 C 0,1 km/h (0 Bft)
28/04/2022 08:00 15,7 C 72 % 1019,5 hPa 0,0 mm 0,0 km/h (0 Bft) N 0,18 h 0,025 mm 119 W/m 10,7 C 15,7 C 0,0 km/h (0 Bft)
28/04/2022 09:00 18,4 C 65 % 1020,2 hPa 0,0 mm 0,9 km/h (0 Bft) E 1,00 h 0,076 mm 412 W/m 11,6 C 18,4 C 2,3 km/h (1 Bft)
28/04/2022 10:00 20,7 C 55 % 1020,6 hPa 0,0 mm 2,3 km/h (1 Bft) E 1,00 h 0,229 mm 570 W/m 11,4 C 20,7 C 6,7 km/h (2 Bft)
28/04/2022 11:00 22,0 C 52 % 1021,2 hPa 0,0 mm 1,4 km/h (1 Bft) E 1,00 h 0,356 mm 703 W/m 11,6 C 22,0 C 5,9 km/h (2 Bft)
28/04/2022 12:00 22,6 C 46 % 1021,3 hPa 0,0 mm 2,3 km/h (1 Bft) E-SE 1,00 h 0,432 mm 781 W/m 10,3 C 22,6 C 7,6 km/h (2 Bft)
28/04/2022 13:00 22,0 C 38 % 1021,3 hPa 0,0 mm 4,0 km/h (1 Bft) E 1,00 h 0,483 mm 813 W/m 7,0 C 22,0 C 8,7 km/h (2 Bft)
28/04/2022 14:00 22,3 C 36 % 1021,0 hPa 0,0 mm 3,0 km/h (1 Bft) E 1,00 h 0,533 mm 789 W/m 6,3 C 22,3 C 7,4 km/h (2 Bft)
28/04/2022 15:00 23,2 C 33 % 1020,6 hPa 0,0 mm 1,7 km/h (1 Bft) E 1,00 h 0,508 mm 708 W/m 6,2 C 23,2 C 5,4 km/h (1 Bft)
28/04/2022 16:00 23,5 C 34 % 1019,8 hPa 0,0 mm 0,9 km/h (0 Bft) E-SE 1,00 h 0,457 mm 588 W/m 6,7 C 23,5 C 3,5 km/h (1 Bft)
28/04/2022 17:00 23,0 C 34 % 1019,7 hPa 0,0 mm 0,4 km/h (0 Bft) S 1,00 h 0,381 mm 431 W/m 6,3 C 23,0 C 2,0 km/h (1 Bft)
28/04/2022 18:00 22,2 C 35 % 1019,7 hPa 0,0 mm 0,4 km/h (0 Bft) S 1,00 h 0,279 mm 262 W/m 6,1 C 22,2 C 1,3 km/h (1 Bft)
28/04/2022 19:00 20,7 C 39 % 1019,8 hPa 0,0 mm 0,0 km/h (0 Bft) S 0,13 h 0,178 mm 72 W/m 6,2 C 20,7 C 0,1 km/h (0 Bft)
28/04/2022 20:00 18,8 C 43 % 1020,2 hPa 0,0 mm 0,0 km/h (0 Bft) N 0,00 h 0,051 mm 8 W/m 6,0 C 18,8 C 0,0 km/h (0 Bft)
28/04/2022 21:00 17,1 C 47 % 1020,7 hPa 0,0 mm 0,0 km/h (0 Bft) N 0,00 h 0,025 mm 0 W/m 5,7 C 17,1 C 0,1 km/h (0 Bft)
28/04/2022 22:00 15,9 C 54 % 1021,3 hPa 0,0 mm 0,3 km/h (0 Bft) S 0,00 h 0,051 mm 0 W/m 6,5 C 15,9 C 1,4 km/h (1 Bft)
28/04/2022 23:00 15,6 C 56 % 1021,6 hPa 0,0 mm 0,8 km/h (0 Bft) S 0,00 h 0,051 mm 0 W/m 6,8 C 15,6 C 2,5 km/h (1 Bft)
29/04/2022 00:00 14,9 C 58 % 1021,9 hPa 0,0 mm 0,6 km/h (0 Bft) S 0,00 h 0,051 mm 0 W/m 6,9 C 14,9 C 1,5 km/h (1 Bft)
29/04/2022 01:00 14,7 C 59 % 1022,3 hPa 0,0 mm 0,0 km/h (0 Bft) N 0,00 h 0,025 mm 0 W/m 6,8 C 14,7 C 0,0 km/h (0 Bft)
29/04/2022 02:00 14,5 C 60 % 1022,1 hPa 0,0 mm 0,0 km/h (0 Bft) N 0,00 h 0,025 mm 0 W/m 6,8 C 14,5 C 0,1 km/h (0 Bft)
29/04/2022 03:00 13,7 C 62 % 1022,1 hPa 0,0 mm 0,0 km/h (0 Bft) N 0,00 h 0,025 mm 0 W/m 6,5 C 13,7 C 0,0 km/h (0 Bft)
29/04/2022 04:00 13,0 C 64 % 1022,1 hPa 0,0 mm 0,0 km/h (0 Bft) N 0,00 h 0,025 mm 0 W/m 6,4 C 13,0 C 0,0 km/h (0 Bft)
29/04/2022 05:00 13,0 C 64 % 1022,1 hPa 0,0 mm 0,0 km/h (0 Bft) N 0,00 h 0,025 mm 0 W/m 6,3 C 13,0 C 0,0 km/h (0 Bft)
29/04/2022 06:00 12,8 C 64 % 1022,6 hPa 0,0 mm 0,0 km/h (0 Bft) N 0,00 h 0,025 mm 11 W/m 6,1 C 12,8 C 0,0 km/h (0 Bft)
29/04/2022 07:00 12,7 C 68 % 1023,1 hPa 0,0 mm 0,0 km/h (0 Bft) N 0,00 h 0,000 mm 27 W/m 7,0 C 12,7 C 0,0 km/h (0 Bft)
29/04/2022 08:00 14,4 C 63 % 1023,4 hPa 0,0 mm 0,0 km/h (0 Bft) E 0,22 h 0,025 mm 112 W/m 7,5 C 14,4 C 0,2 km/h (0 Bft)
29/04/2022 09:00 18,3 C 50 % 1023,4 hPa 0,0 mm 1,0 km/h (0 Bft) E 1,00 h 0,076 mm 445 W/m 7,8 C 18,3 C 3,0 km/h (1 Bft)
29/04/2022 10:00 20,5 C 44 % 1023,3 hPa 0,0 mm 2,8 km/h (1 Bft) S 1,00 h 0,254 mm 599 W/m 7,6 C 20,5 C 5,8 km/h (2 Bft)
29/04/2022 11:00 21,4 C 41 % 1023,0 hPa 0,0 mm 4,2 km/h (1 Bft) S-SE 1,00 h 0,381 mm 715 W/m 7,6 C 21,4 C 8,8 km/h (2 Bft)
29/04/2022 12:00 22,6 C 42 % 1022,4 hPa 0,0 mm 3,7 km/h (1 Bft) S 1,00 h 0,457 mm 793 W/m 8,9 C 22,6 C 8,7 km/h (2 Bft)
29/04/2022 13:00 23,1 C 43 % 1021,8 hPa 0,0 mm 3,8 km/h (1 Bft) S 1,00 h 0,508 mm 813 W/m 9,7 C 23,1 C 9,3 km/h (2 Bft)
29/04/2022 14:00 22,0 C 44 % 1021,6 hPa 0,0 mm 5,4 km/h (1 Bft) S 1,00 h 0,533 mm 790 W/m 9,2 C 22,0 C 10,6 km/h (2 Bft)
29/04/2022 15:00 22,1 C 43 % 1021,2 hPa 0,0 mm 4,1 km/h (1 Bft) S 1,00 h 0,508 mm 714 W/m 9,0 C 22,1 C 8,8 km/h (2 Bft)
29/04/2022 16:00 22,5 C 44 % 1020,4 hPa 0,0 mm 2,7 km/h (1 Bft) E 1,00 h 0,457 mm 583 W/m 9,6 C 22,5 C 6,5 km/h (2 Bft)
29/04/2022 17:00 21,6 C 42 % 1020,1 hPa 0,0 mm 3,3 km/h (1 Bft) S 1,00 h 0,381 mm 428 W/m 8,0 C 21,6 C 6,8 km/h (2 Bft)
29/04/2022 18:00 20,7 C 42 % 1019,9 hPa 0,0 mm 2,3 km/h (1 Bft) S 0,83 h 0,279 mm 225 W/m 7,5 C 20,7 C 5,7 km/h (1 Bft)
29/04/2022 19:00 19,4 C 44 % 1019,8 hPa 0,0 mm 0,0 km/h (0 Bft) N 0,00 h 0,152 mm 53 W/m 6,8 C 19,4 C 0,1 km/h (0 Bft)
29/04/2022 20:00 17,9 C 47 % 1019,8 hPa 0,0 mm 0,0 km/h (0 Bft) N 0,00 h 0,051 mm 13 W/m 6,3 C 17,9 C 0,0 km/h (0 Bft)
29/04/2022 21:00 16,3 C 53 % 1020,0 hPa 0,0 mm 0,1 km/h (0 Bft) S 0,00 h 0,025 mm 0 W/m 6,8 C 16,3 C 0,3 km/h (0 Bft)
29/04/2022 22:00 14,9 C 60 % 1020,3 hPa 0,0 mm 0,1 km/h (0 Bft) S 0,00 h 0,051 mm 0 W/m 7,2 C 14,9 C 1,0 km/h (0 Bft)
29/04/2022 23:00 14,6 C 60 % 1020,4 hPa 0,0 mm 0,6 km/h (0 Bft) S 0,00 h 0,025 mm 0 W/m 7,0 C 14,6 C 1,5 km/h (1 Bft)
30/04/2022 00:00 14,5 C 60 % 1020,3 hPa 0,0 mm 3,0 km/h (1 Bft) NO 0,00 h 0,025 mm 0 W/m 6,9 C 14,5 C 6,5 km/h (2 Bft)
30/04/2022 01:00 14,7 C 59 % 1019,9 hPa 0,0 mm 2,6 km/h (1 Bft) O-NO 0,00 h 0,051 mm 0 W/m 6,9 C 14,7 C 6,1 km/h (2 Bft)
30/04/2022 02:00 14,3 C 61 % 1019,6 hPa 0,0 mm 0,2 km/h (0 Bft) NO 0,00 h 0,051 mm 0 W/m 6,8 C 14,3 C 1,2 km/h (1 Bft)
30/04/2022 03:00 14,1 C 61 % 1019,3 hPa 0,0 mm 0,0 km/h (0 Bft) N 0,00 h 0,025 mm 0 W/m 6,8 C 14,1 C 0,0 km/h (0 Bft)
30/04/2022 04:00 13,7 C 63 % 1019,0 hPa 0,0 mm 0,0 km/h (0 Bft) NO 0,00 h 0,025 mm 0 W/m 6,8 C 13,7 C 0,4 km/h (0 Bft)
30/04/2022 05:00 13,6 C 63 % 1018,8 hPa 0,0 mm 0,1 km/h (0 Bft) NO 0,00 h 0,025 mm 0 W/m 6,8 C 13,6 C 0,4 km/h (0 Bft)
30/04/2022 06:00 13,6 C 65 % 1018,8 hPa 0,0 mm 0,5 km/h (0 Bft) NO 0,00 h 0,025 mm 13 W/m 7,1 C 13,6 C 0,9 km/h (0 Bft)
30/04/2022 07:00 13,7 C 68 % 1019,2 hPa 0,0 mm 0,0 km/h (0 Bft) NO 0,00 h 0,000 mm 45 W/m 7,9 C 13,7 C 0,2 km/h (0 Bft)
30/04/2022 08:00 14,9 C 68 % 1019,4 hPa 0,0 mm 0,0 km/h (0 Bft) N 0,05 h 0,025 mm 138 W/m 9,0 C 14,9 C 0,0 km/h (0 Bft)
30/04/2022 09:00 17,9 C 61 % 1019,5 hPa 0,0 mm 0,3 km/h (0 Bft) E 0,78 h 0,076 mm 381 W/m 10,1 C 17,9 C 1,0 km/h (0 Bft)
30/04/2022 10:00 20,4 C 57 % 1019,5 hPa 0,0 mm 0,9 km/h (0 Bft) E 0,95 h 0,203 mm 534 W/m 11,4 C 20,4 C 3,6 km/h (1 Bft)
30/04/2022 11:00 21,1 C 55 % 1019,3 hPa 0,0 mm 1,8 km/h (1 Bft) E-SE 1,00 h 0,330 mm 628 W/m 11,7 C 21,1 C 5,4 km/h (1 Bft)
30/04/2022 12:00 19,9 C 61 % 1019,2 hPa 0,0 mm 2,5 km/h (1 Bft) E 0,63 h 0,381 mm 567 W/m 12,2 C 19,9 C 6,6 km/h (2 Bft)
30/04/2022 13:00 19,5 C 54 % 1018,8 hPa 0,0 mm 3,7 km/h (1 Bft) E 0,63 h 0,356 mm 606 W/m 9,8 C 19,5 C 8,4 km/h (2 Bft)
30/04/2022 14:00 19,7 C 48 % 1018,3 hPa 0,0 mm 2,4 km/h (1 Bft) E-SE 0,88 h 0,381 mm 679 W/m 8,2 C 19,7 C 6,1 km/h (2 Bft)
30/04/2022 15:00 20,8 C 41 % 1017,5 hPa 0,0 mm 2,0 km/h (1 Bft) E 1,00 h 0,406 mm 707 W/m 7,1 C 20,8 C 6,3 km/h (2 Bft)
30/04/2022 16:00 20,6 C 42 % 1017,2 hPa 0,0 mm 1,9 km/h (1 Bft) E 0,68 h 0,432 mm 523 W/m 7,1 C 20,6 C 5,5 km/h (1 Bft)
30/04/2022 17:00 19,4 C 44 % 1016,5 hPa 0,0 mm 0,5 km/h (0 Bft) E-SE 0,20 h 0,330 mm 232 W/m 6,8 C 19,4 C 1,8 km/h (1 Bft)
30/04/2022 18:00 18,1 C 48 % 1016,4 hPa 0,0 mm 0,1 km/h (0 Bft) E-SE 0,00 h 0,152 mm 60 W/m 6,9 C 18,1 C 0,2 km/h (0 Bft)
30/04/2022 19:00 16,4 C 63 % 1016,7 hPa 0,0 mm 0,0 km/h (0 Bft) N 0,00 h 0,051 mm 10 W/m 9,2 C 16,4 C 0,0 km/h (0 Bft)
30/04/2022 20:00 14,6 C 74 % 1016,6 hPa 0,0 mm 0,0 km/h (0 Bft) N 0,08 h 0,025 mm 13 W/m 9,9 C 14,6 C 0,0 km/h (0 Bft)
30/04/2022 21:00 13,6 C 79 % 1016,6 hPa 0,0 mm 0,0 km/h (0 Bft) N 0,00 h 0,000 mm 0 W/m 10,0 C 13,6 C 0,0 km/h (0 Bft)
30/04/2022 22:00 13,4 C 79 % 1016,5 hPa 0,0 mm 0,3 km/h (0 Bft) E-SE 0,00 h 0,025 mm 0 W/m 9,9 C 13,4 C 1,4 km/h (1 Bft)
30/04/2022 23:00 13,5 C 78 % 1016,5 hPa 0,0 mm 0,1 km/h (0 Bft) O-NO 0,00 h 0,025 mm 0 W/m 9,7 C 13,5 C 0,6 km/h (0 Bft)
01/05/2022 00:00 13,1 C 77 % 1016,2 hPa 0,0 mm 0,1 km/h (0 Bft) O-NO 0,00 h 0,000 mm 0 W/m 9,2 C 13,1 C 0,6 km/h (0 Bft)
01/05/2022 01:00 12,2 C 80 % 1015,8 hPa 0,0 mm 0,0 km/h (0 Bft) O-NO 0,00 h 0,025 mm 0 W/m 8,9 C 12,2 C 0,2 km/h (0 Bft)
01/05/2022 02:00 11,8 C 79 % 1015,4 hPa 0,0 mm 0,0 km/h (0 Bft) N 0,00 h 0,025 mm 0 W/m 8,4 C 11,8 C 0,0 km/h (0 Bft)
01/05/2022 03:00 11,9 C 77 % 1014,8 hPa 0,0 mm 0,0 km/h (0 Bft) N 0,00 h 0,025 mm 0 W/m 8,1 C 11,9 C 0,1 km/h (0 Bft)
01/05/2022 04:00 12,1 C 75 % 1014,5 hPa 0,0 mm 0,0 km/h (0 Bft) N 0,00 h 0,025 mm 0 W/m 7,8 C 12,1 C 0,0 km/h (0 Bft)
01/05/2022 05:00 11,9 C 75 % 1014,2 hPa 0,0 mm 0,0 km/h (0 Bft) N 0,00 h 0,025 mm 0 W/m 7,5 C 11,9 C 0,0 km/h (0 Bft)
01/05/2022 06:00 11,7 C 75 % 1014,2 hPa 0,0 mm 0,0 km/h (0 Bft) N 0,00 h 0,025 mm 13 W/m 7,4 C 11,7 C 0,1 km/h (0 Bft)
01/05/2022 07:00 12,1 C 74 % 1014,7 hPa 0,0 mm 0,0 km/h (0 Bft) N 0,00 h 0,000 mm 32 W/m 7,5 C 12,1 C 0,0 km/h (0 Bft)
01/05/2022 08:00 13,6 C 72 % 1014,8 hPa 0,0 mm 0,0 km/h (0 Bft) N 0,20 h 0,025 mm 114 W/m 8,6 C 13,6 C 0,0 km/h (0 Bft)
01/05/2022 09:00 17,5 C 66 % 1014,7 hPa 0,0 mm 0,0 km/h (0 Bft) O-NO 1,00 h 0,076 mm 429 W/m 10,9 C 17,5 C 0,6 km/h (0 Bft)
01/05/2022 10:00 20,9 C 52 % 1014,7 hPa 0,0 mm 1,0 km/h (0 Bft) E 1,00 h 0,229 mm 612 W/m 10,5 C 20,9 C 3,4 km/h (1 Bft)
01/05/2022 11:00 21,7 C 51 % 1015,0 hPa 0,0 mm 4,3 km/h (1 Bft) E-SE 0,77 h 0,356 mm 657 W/m 11,1 C 21,7 C 10,1 km/h (2 Bft)
01/05/2022 12:00 20,5 C 55 % 1015,4 hPa 0,0 mm 3,6 km/h (1 Bft) E 0,72 h 0,406 mm 672 W/m 11,0 C 20,5 C 9,3 km/h (2 Bft)
01/05/2022 13:00 20,9 C 49 % 1015,3 hPa 0,0 mm 4,4 km/h (1 Bft) E 0,95 h 0,432 mm 816 W/m 9,8 C 20,9 C 10,6 km/h (2 Bft)
01/05/2022 14:00 21,0 C 52 % 1014,9 hPa 0,0 mm 3,8 km/h (1 Bft) E 1,00 h 0,508 mm 810 W/m 10,7 C 21,0 C 9,4 km/h (2 Bft)
01/05/2022 15:00 19,8 C 59 % 1014,9 hPa 0,0 mm 4,4 km/h (1 Bft) E 0,33 h 0,508 mm 445 W/m 11,4 C 19,8 C 9,8 km/h (2 Bft)
01/05/2022 16:00 18,1 C 67 % 1014,9 hPa 0,0 mm 1,5 km/h (1 Bft) E 0,03 h 0,279 mm 219 W/m 11,9 C 18,1 C 3,9 km/h (1 Bft)
01/05/2022 17:00 17,0 C 73 % 1015,0 hPa 0,8 mm 0,0 km/h (0 Bft) E 0,00 h 0,127 mm 48 W/m 12,1 C 17,0 C 0,3 km/h (0 Bft)
01/05/2022 18:00 14,3 C 85 % 1014,8 hPa 0,4 mm 0,2 km/h (0 Bft) E 0,00 h 0,025 mm 43 W/m 11,7 C 14,3 C 1,2 km/h (1 Bft)
01/05/2022 19:00 13,7 C 91 % 1014,5 hPa 0,6 mm 0,5 km/h (0 Bft) E 0,00 h 0,025 mm 16 W/m 12,3 C 13,7 C 1,9 km/h (1 Bft)
01/05/2022 20:00 13,3 C 93 % 1014,3 hPa 0,6 mm 0,1 km/h (0 Bft) O 0,00 h 0,000 mm 5 W/m 12,2 C 13,3 C 0,5 km/h (0 Bft)
01/05/2022 21:00 12,9 C 94 % 1014,6 hPa 0,2 mm 0,5 km/h (0 Bft) O-NO 0,00 h 0,000 mm 0 W/m 11,9 C 12,9 C 1,0 km/h (0 Bft)
01/05/2022 22:00 12,7 C 95 % 1014,9 hPa 0,0 mm 0,0 km/h (0 Bft) N 0,00 h 0,000 mm 0 W/m 11,9 C 12,7 C 0,0 km/h (0 Bft)
01/05/2022 23:00 12,3 C 95 % 1014,9 hPa 0,0 mm 0,0 km/h (0 Bft) N 0,00 h 0,000 mm 0 W/m 11,5 C 12,3 C 0,1 km/h (0 Bft)
Min-Date _ 25/04/22 28/04/22 25/04/22 - 25/04/22 - - - - 28/04/22 25/04/22 25/04/22
_ Min-Heure 05:49 15:11 05:30 - 00:00 - - - - 14:06 05:49 00:00
Minimum _ 9,3 C 31 % 1006,3 hPa - 0,0 km/h (0 Bft) - - - - 4,7 C 9,3 C 0,0 km/h (0 Bft)
Max-Date _ 28/04/22 25/04/22 29/04/22 01/05/22 01/05/22 - 25/04/22 28/04/22 26/04/22 26/04/22 28/04/22 29/04/22
_ Max-Heure 16:04 07:41 08:45 17:27 11:34 - 08:51 14:00 12:20 15:43 16:04 15:24
Maximum _ 23,7 C 98 % 1023,6 hPa 0,8 mm 12,9 km/h
E-SE (3 Bft)
- 0,02 h 0,533 mm 1060 W/m 15,5 C 23,7 C 20,9 km/h
S (4 Bft)
Moyenne _ 15,9 C 70 % 1016,1 hPa #2,8 mm 0,9 km/h (0 Bft) E #54:50 h #24,820 mm 374 W/m 10,0 C 15,9 C 2,5 km/h (1 Bft)
Roquefort les pins